Time;durP1;ratioP1;P1;durP2;ratioP2;P2;SDS_P1;SDS_P2;PMS_P1;PMS_P2;Temp;Humidity;BMP_temperature;BMP_pressure;BME280_temperature;BME280_humidity;BME280_pressure;Samples;Min_cycle;Max_cycle;Signal;HPM_P1;HPM_P2
2021/08/04 00:02:10;;;;;;;11.67;10.43;;;13.50;99.90;;;;;;5042485;28;20352;-67
2021/08/04 00:04:39;;;;;;;12.57;10.80;;;13.40;99.90;;;;;;5044973;28;20189;-67
2021/08/04 00:07:08;;;;;;;14.97;11.10;;;13.40;99.90;;;;;;5045065;28;20296;-67
2021/08/04 00:09:37;;;;;;;14.63;11.67;;;13.40;99.90;;;;;;5042764;28;20189;-67
2021/08/04 00:12:06;;;;;;;17.33;11.60;;;13.40;99.90;;;;;;5039347;28;20232;-66
2021/08/04 00:14:34;;;;;;;15.43;11.70;;;13.40;99.90;;;;;;5052038;28;20257;-67
2021/08/04 00:17:03;;;;;;;12.73;10.83;;;13.30;99.90;;;;;;5023580;28;20181;-68
2021/08/04 00:19:32;;;;;;;13.30;11.87;;;13.30;99.90;;;;;;5043423;28;20200;-67
2021/08/04 00:22:00;;;;;;;13.57;11.90;;;13.30;99.90;;;;;;5042574;28;20189;-67
2021/08/04 00:24:30;;;;;;;15.47;11.83;;;13.30;99.90;;;;;;5052169;28;20181;-68
2021/08/04 00:26:58;;;;;;;15.77;11.47;;;13.30;99.90;;;;;;5044228;28;20201;-68
2021/08/04 00:29:26;;;;;;;15.70;12.30;;;13.30;99.90;;;;;;5046170;28;20181;-67
2021/08/04 00:31:54;;;;;;;15.20;12.37;;;13.30;99.90;;;;;;5042318;28;20345;-68
2021/08/04 00:34:22;;;;;;;16.27;12.10;;;13.20;99.90;;;;;;5042354;28;20201;-67
2021/08/04 00:36:51;;;;;;;17.70;12.03;;;13.20;99.90;;;;;;5042912;28;20420;-68
2021/08/04 00:39:19;;;;;;;15.73;12.07;;;13.10;99.90;;;;;;5041627;28;20381;-67
2021/08/04 00:41:49;;;;;;;15.10;11.73;;;13.10;99.90;;;;;;5040651;28;20523;-67
2021/08/04 00:44:17;;;;;;;14.80;11.70;;;13.10;99.90;;;;;;5041694;28;20413;-67
2021/08/04 00:46:46;;;;;;;13.97;11.40;;;13.10;99.90;;;;;;5037055;28;20186;-67
2021/08/04 00:49:15;;;;;;;16.67;11.53;;;13.10;99.90;;;;;;5043413;28;20181;-67
2021/08/04 00:51:44;;;;;;;12.37;11.03;;;13.10;99.90;;;;;;5039513;28;20264;-67
2021/08/04 00:54:12;;;;;;;12.53;11.23;;;13.10;99.90;;;;;;5042209;28;20189;-67
2021/08/04 00:56:40;;;;;;;14.70;11.97;;;13.10;99.90;;;;;;5041735;28;20444;-68
2021/08/04 00:59:14;;;;;;;15.73;12.53;;;13.00;99.90;;;;;;5040601;28;20177;-67
2021/08/04 01:01:47;;;;;;;14.40;11.77;;;13.00;99.90;;;;;;5043176;28;20189;-67
2021/08/04 01:04:22;;;;;;;14.00;11.57;;;13.00;99.90;;;;;;5040301;28;20369;-67
2021/08/04 01:07:00;;;;;;;19.63;12.30;;;12.90;99.90;;;;;;5040101;28;20220;-66
2021/08/04 01:09:33;;;;;;;15.23;12.13;;;12.90;99.90;;;;;;5041195;28;20433;-67
2021/08/04 01:12:05;;;;;;;16.77;13.63;;;12.90;99.90;;;;;;5043590;28;20401;-67
2021/08/04 01:14:38;;;;;;;13.10;11.70;;;12.90;99.90;;;;;;5037302;28;20196;-67
2021/08/04 01:17:08;;;;;;;13.87;11.27;;;12.80;99.90;;;;;;5037330;28;20481;-68
2021/08/04 01:19:53;;;;;;;13.90;12.13;;;12.80;99.90;;;;;;5043951;28;20183;-68
2021/08/04 01:22:30;;;;;;;15.47;12.63;;;12.80;99.90;;;;;;5035353;28;20453;-68
2021/08/04 01:25:05;;;;;;;13.10;11.70;;;12.80;99.90;;;;;;5023383;28;20192;-67
2021/08/04 01:27:37;;;;;;;18.43;12.03;;;12.80;99.90;;;;;;5041560;28;20465;-68
2021/08/04 01:30:07;;;;;;;14.23;11.97;;;12.80;99.90;;;;;;5043809;28;20177;-67
2021/08/04 01:32:35;;;;;;;13.00;11.60;;;12.80;99.90;;;;;;5039453;28;20174;-68
2021/08/04 01:35:05;;;;;;;14.83;12.70;;;12.80;99.90;;;;;;5040557;28;20188;-68
2021/08/04 01:37:35;;;;;;;18.63;12.70;;;12.80;99.90;;;;;;5041348;28;20189;-68
2021/08/04 01:40:06;;;;;;;17.50;13.47;;;12.90;99.90;;;;;;5022606;28;20199;-68
2021/08/04 01:42:38;;;;;;;15.90;12.93;;;12.90;99.90;;;;;;5050097;28;20204;-68
2021/08/04 01:45:08;;;;;;;17.00;12.37;;;12.90;99.90;;;;;;5040786;28;20201;-67
2021/08/04 01:47:38;;;;;;;15.50;12.83;;;12.90;99.90;;;;;;5028861;28;20384;-67
2021/08/04 01:50:07;;;;;;;16.73;12.80;;;12.90;99.90;;;;;;5020172;28;20276;-67
2021/08/04 01:52:37;;;;;;;20.27;14.30;;;12.90;99.90;;;;;;5038711;28;20481;-67
2021/08/04 01:55:09;;;;;;;18.13;13.87;;;12.90;99.90;;;;;;5040566;28;20177;-68
2021/08/04 01:57:40;;;;;;;15.23;12.60;;;12.90;99.90;;;;;;5043057;28;20194;-67
2021/08/04 02:00:10;;;;;;;15.97;11.93;;;12.90;99.90;;;;;;5044221;28;20180;-67
2021/08/04 02:02:38;;;;;;;15.53;12.47;;;12.90;99.90;;;;;;5037920;28;20229;-67
2021/08/04 02:05:10;;;;;;;14.57;12.47;;;12.80;99.90;;;;;;5022285;28;20560;-68
2021/08/04 02:07:57;;;;;;;16.27;13.50;;;12.80;99.90;;;;;;5044536;28;20204;-67
2021/08/04 02:10:32;;;;;;;15.67;13.00;;;12.70;99.90;;;;;;5040304;28;20201;-68
2021/08/04 02:13:11;;;;;;;17.43;12.80;;;12.70;99.90;;;;;;5044042;28;20192;-67
2021/08/04 02:15:42;;;;;;;16.60;14.03;;;12.70;99.90;;;;;;5039845;28;20329;-67
2021/08/04 02:18:16;;;;;;;18.13;13.17;;;12.60;99.90;;;;;;5041965;28;20187;-66
2021/08/04 02:20:46;;;;;;;15.07;13.03;;;12.60;99.90;;;;;;5038898;28;20183;-67
2021/08/04 02:23:20;;;;;;;17.40;14.17;;;12.60;99.90;;;;;;5038269;28;20212;-67
2021/08/04 02:25:51;;;;;;;16.77;14.13;;;12.60;99.90;;;;;;5042438;28;20420;-67
2021/08/04 02:28:25;;;;;;;21.40;14.13;;;12.60;99.90;;;;;;5047211;28;20181;-67
2021/08/04 02:30:54;;;;;;;17.77;13.93;;;12.60;99.90;;;;;;5037541;28;20189;-68
2021/08/04 02:33:24;;;;;;;18.53;15.13;;;12.60;99.90;;;;;;5041829;28;20239;-67
2021/08/04 02:35:53;;;;;;;22.10;15.00;;;12.60;99.90;;;;;;5042748;28;20231;-67
2021/08/04 02:38:22;;;;;;;19.33;14.67;;;12.60;99.90;;;;;;5038898;28;20207;-67
2021/08/04 02:40:51;;;;;;;19.37;15.27;;;12.70;99.90;;;;;;5021830;28;20173;-67
2021/08/04 02:43:23;;;;;;;20.43;15.93;;;12.70;99.90;;;;;;5021977;28;20209;-68
2021/08/04 02:45:52;;;;;;;20.30;15.10;;;12.70;99.90;;;;;;5044283;28;20197;-68
2021/08/04 02:48:21;;;;;;;19.00;14.63;;;12.70;99.90;;;;;;5047067;28;20256;-67
2021/08/04 02:50:53;;;;;;;19.07;14.73;;;12.70;99.90;;;;;;5043654;28;20189;-67
2021/08/04 02:53:21;;;;;;;20.70;15.63;;;12.70;99.90;;;;;;5044799;28;20228;-68
2021/08/04 02:55:51;;;;;;;22.30;14.53;;;12.70;99.90;;;;;;5044125;28;20201;-68
2021/08/04 02:58:21;;;;;;;20.50;15.83;;;12.60;99.90;;;;;;5027871;28;20173;-67
2021/08/04 03:00:50;;;;;;;31.27;16.17;;;12.60;99.90;;;;;;5043574;28;20189;-67
2021/08/04 03:03:18;;;;;;;18.20;15.17;;;12.60;99.90;;;;;;5045133;28;20453;-67
2021/08/04 03:05:47;;;;;;;25.03;17.93;;;12.60;99.90;;;;;;5039723;28;20203;-67
2021/08/04 03:08:15;;;;;;;22.03;15.60;;;12.50;99.90;;;;;;5041382;28;20177;-66
2021/08/04 03:10:43;;;;;;;20.13;15.73;;;12.50;99.90;;;;;;5023097;28;20220;-67
2021/08/04 03:13:12;;;;;;;21.67;15.70;;;12.40;99.90;;;;;;5045091;28;20181;-68
2021/08/04 03:15:41;;;;;;;23.57;16.83;;;12.40;99.90;;;;;;5042401;28;20181;-67
2021/08/04 03:18:09;;;;;;;24.63;17.20;;;12.40;99.90;;;;;;5050792;28;20183;-67
2021/08/04 03:20:38;;;;;;;26.60;16.33;;;12.40;99.90;;;;;;5042256;28;20187;-68
2021/08/04 03:23:06;;;;;;;19.40;15.50;;;12.40;99.90;;;;;;5043706;28;20281;-67
2021/08/04 03:25:35;;;;;;;21.17;16.03;;;12.40;99.90;;;;;;5042912;28;20208;-67
2021/08/04 03:28:03;;;;;;;20.97;15.17;;;12.40;99.90;;;;;;5042800;28;20440;-68
2021/08/04 03:30:31;;;;;;;23.47;15.47;;;12.40;99.90;;;;;;5025079;28;20364;-67
2021/08/04 03:33:11;;;;;;;17.70;14.10;;;12.40;99.90;;;;;;5022879;28;20178;-68
2021/08/04 03:35:39;;;;;;;18.17;14.13;;;12.30;99.90;;;;;;5046148;28;20260;-67
2021/08/04 03:38:08;;;;;;;18.37;14.17;;;12.30;99.90;;;;;;5010186;28;20185;-67
2021/08/04 03:40:36;;;;;;;18.93;14.57;;;12.30;99.90;;;;;;5024940;28;20316;-67
2021/08/04 03:43:05;;;;;;;24.53;17.13;;;12.20;99.90;;;;;;5043716;28;20177;-67
2021/08/04 03:45:33;;;;;;;27.03;18.43;;;12.10;99.90;;;;;;5032689;28;20325;-67
2021/08/04 03:48:01;;;;;;;23.77;17.13;;;12.20;99.90;;;;;;5043914;28;20219;-67
2021/08/04 03:50:31;;;;;;;22.13;17.47;;;12.20;99.90;;;;;;5045745;28;20173;-67
2021/08/04 03:52:59;;;;;;;24.50;17.17;;;12.20;99.90;;;;;;5031653;28;20217;-67
2021/08/04 03:55:27;;;;;;;22.73;17.00;;;12.20;99.90;;;;;;5042027;28;20390;-66
2021/08/04 03:57:56;;;;;;;21.77;17.07;;;12.20;99.90;;;;;;5042354;28;20186;-67
2021/08/04 04:00:24;;;;;;;27.03;18.47;;;12.30;99.90;;;;;;5025213;28;20264;-67
2021/08/04 04:02:52;;;;;;;26.20;18.07;;;12.30;99.90;;;;;;5035770;28;20201;-68
2021/08/04 04:05:21;;;;;;;26.37;18.07;;;12.30;99.90;;;;;;5041441;28;20197;-67
2021/08/04 04:07:50;;;;;;;28.67;18.47;;;12.30;99.90;;;;;;5042191;28;20465;-67
2021/08/04 04:10:18;;;;;;;26.73;17.63;;;12.40;99.90;;;;;;5042485;28;20188;-66
2021/08/04 04:12:49;;;;;;;25.70;18.13;;;12.40;99.90;;;;;;5013678;28;20185;-67
2021/08/04 04:15:24;;;;;;;23.33;17.70;;;12.40;99.90;;;;;;5025704;28;20352;-68
2021/08/04 04:17:53;;;;;;;27.93;19.03;;;12.40;99.90;;;;;;5043373;28;20296;-67
2021/08/04 04:20:22;;;;;;;24.20;16.97;;;12.40;99.90;;;;;;5044037;28;20177;-67
2021/08/04 04:22:54;;;;;;;22.43;15.70;;;12.40;99.90;;;;;;5040954;28;20177;-67
2021/08/04 04:25:22;;;;;;;21.87;16.47;;;12.40;99.90;;;;;;5041099;28;20212;-67
2021/08/04 04:27:51;;;;;;;22.30;17.03;;;12.40;99.90;;;;;;5024342;28;20181;-67
2021/08/04 04:30:19;;;;;;;24.60;16.80;;;12.40;99.90;;;;;;5020870;28;20179;-67
2021/08/04 04:32:47;;;;;;;21.03;16.10;;;12.40;99.90;;;;;;5024308;28;20186;-67
2021/08/04 04:35:15;;;;;;;24.03;16.57;;;12.30;99.90;;;;;;5043054;28;20191;-68
2021/08/04 04:37:43;;;;;;;27.30;18.23;;;12.30;99.90;;;;;;5042656;28;20348;-66
2021/08/04 04:40:13;;;;;;;30.63;19.50;;;12.30;99.90;;;;;;5027244;28;20441;-67
2021/08/04 04:42:42;;;;;;;27.33;19.03;;;12.40;99.90;;;;;;5039356;28;20181;-68
2021/08/04 04:45:11;;;;;;;27.37;17.73;;;12.40;99.90;;;;;;5040187;28;20279;-67
2021/08/04 04:47:39;;;;;;;30.40;18.93;;;12.40;99.90;;;;;;5042273;28;20185;-67
2021/08/04 04:50:08;;;;;;;29.20;17.93;;;12.40;99.90;;;;;;5043887;28;20181;-68
2021/08/04 04:52:42;;;;;;;29.53;18.50;;;12.40;99.90;;;;;;5042596;28;20221;-66
2021/08/04 04:55:14;;;;;;;28.43;19.33;;;12.40;99.90;;;;;;5046342;28;20244;-67
2021/08/04 04:57:42;;;;;;;26.77;16.93;;;12.40;99.90;;;;;;5044116;28;20459;-67
2021/08/04 05:00:12;;;;;;;27.50;18.83;;;12.50;99.90;;;;;;5024162;28;20177;-68
2021/08/04 05:02:41;;;;;;;26.80;18.47;;;12.50;99.90;;;;;;5043477;28;20184;-67
2021/08/04 05:05:14;;;;;;;26.07;18.20;;;12.60;99.90;;;;;;5042583;28;20211;-68
2021/08/04 05:07:43;;;;;;;26.73;20.13;;;12.70;99.90;;;;;;5024666;28;20325;-68
2021/08/04 05:10:13;;;;;;;31.87;20.37;;;12.70;99.90;;;;;;5041810;28;20196;-68
2021/08/04 05:12:41;;;;;;;29.90;20.10;;;12.90;99.90;;;;;;5039305;28;20181;-67
2021/08/04 05:15:11;;;;;;;27.53;19.27;;;12.90;99.90;;;;;;5041224;28;20378;-68
2021/08/04 05:17:39;;;;;;;25.30;18.27;;;13.00;99.90;;;;;;5045058;28;20174;-68
2021/08/04 05:20:09;;;;;;;29.67;19.93;;;13.00;99.90;;;;;;5046937;28;20181;-68
2021/08/04 05:22:42;;;;;;;29.50;18.13;;;13.10;99.90;;;;;;5040421;28;20181;-68
2021/08/04 05:25:15;;;;;;;30.57;19.97;;;13.10;99.90;;;;;;5041211;28;20385;-67
2021/08/04 05:27:47;;;;;;;30.23;20.87;;;13.30;99.90;;;;;;5042680;28;20439;-68
2021/08/04 05:30:16;;;;;;;27.50;20.00;;;13.30;99.90;;;;;;5043611;28;20200;-67
2021/08/04 05:32:44;;;;;;;27.63;20.30;;;13.50;99.90;;;;;;5039984;28;20205;-68
2021/08/04 05:35:14;;;;;;;32.40;21.13;;;13.60;99.90;;;;;;5042780;28;20181;-68
2021/08/04 05:37:42;;;;;;;28.87;20.57;;;13.70;99.90;;;;;;5044551;28;20181;-68
2021/08/04 05:40:17;;;;;;;29.50;20.70;;;13.80;99.90;;;;;;5025412;28;20193;-68
2021/08/04 05:42:45;;;;;;;28.10;19.43;;;13.90;99.90;;;;;;5045856;28;20190;-68
2021/08/04 05:45:14;;;;;;;28.33;19.87;;;14.00;99.90;;;;;;5041371;28;20224;-68
2021/08/04 05:47:43;;;;;;;37.37;21.27;;;14.20;99.90;;;;;;5023432;28;20181;-68
2021/08/04 05:50:12;;;;;;;29.77;19.00;;;14.30;99.90;;;;;;5049967;28;20320;-68
2021/08/04 05:52:40;;;;;;;32.63;21.97;;;14.40;99.90;;;;;;5019232;28;20788;-68
2021/08/04 05:55:10;;;;;;;34.93;25.20;;;14.40;99.90;;;;;;5039106;28;20215;-68
2021/08/04 05:57:40;;;;;;;31.20;21.90;;;14.50;99.90;;;;;;5023673;28;20374;-68
2021/08/04 06:00:10;;;;;;;25.93;19.10;;;14.70;99.90;;;;;;5031419;28;20185;-68
2021/08/04 06:02:38;;;;;;;28.67;19.37;;;14.80;99.90;;;;;;5041251;28;20185;-68
2021/08/04 06:05:08;;;;;;;35.17;22.00;;;14.90;99.90;;;;;;5040801;28;20198;-69
2021/08/04 06:07:36;;;;;;;28.10;18.33;;;15.00;99.90;;;;;;5041991;28;20188;-68
2021/08/04 06:10:05;;;;;;;25.23;17.57;;;15.10;99.90;;;;;;5039631;28;20229;-68
2021/08/04 06:12:33;;;;;;;22.23;17.23;;;15.30;99.90;;;;;;5024557;28;20192;-68
2021/08/04 06:15:03;;;;;;;26.57;18.40;;;15.30;99.90;;;;;;5045012;28;20228;-68
2021/08/04 06:17:31;;;;;;;25.93;18.60;;;15.40;99.90;;;;;;5045335;28;20181;-67
2021/08/04 06:20:00;;;;;;;30.70;19.30;;;15.60;99.90;;;;;;5043801;28;20188;-68
2021/08/04 06:22:28;;;;;;;35.43;23.67;;;15.70;99.90;;;;;;5042439;28;20201;-68
2021/08/04 06:24:57;;;;;;;32.80;22.47;;;16.00;99.90;;;;;;5043080;28;20197;-68
2021/08/04 06:27:25;;;;;;;32.10;21.97;;;16.10;99.90;;;;;;5044907;28;20274;-67
2021/08/04 06:29:53;;;;;;;38.10;24.37;;;16.20;99.90;;;;;;5043868;28;20212;-68
2021/08/04 06:32:23;;;;;;;34.20;21.90;;;16.20;99.90;;;;;;5046997;28;20178;-68
2021/08/04 06:34:51;;;;;;;33.63;22.73;;;16.30;99.90;;;;;;5033283;28;20770;-67
2021/08/04 06:37:19;;;;;;;33.03;21.97;;;16.50;99.90;;;;;;5032787;28;20198;-68
2021/08/04 06:39:47;;;;;;;32.70;21.87;;;16.60;99.90;;;;;;5045065;28;20180;-68
2021/08/04 06:42:19;;;;;;;34.50;23.20;;;16.60;99.90;;;;;;5047355;28;20179;-68
2021/08/04 06:44:47;;;;;;;35.10;23.50;;;16.70;99.90;;;;;;5048114;28;20349;-68
2021/08/04 06:47:15;;;;;;;38.63;25.57;;;17.00;99.90;;;;;;5041489;28;20290;-68
2021/08/04 06:49:45;;;;;;;37.07;24.73;;;17.20;99.90;;;;;;5041220;28;20186;-68
2021/08/04 06:52:14;;;;;;;36.87;24.63;;;17.40;99.90;;;;;;5039116;28;20236;-68
2021/08/04 06:54:42;;;;;;;36.87;23.93;;;17.50;99.90;;;;;;5041884;28;20181;-68
2021/08/04 06:57:10;;;;;;;44.00;27.40;;;17.60;99.90;;;;;;5042773;28;20184;-68
2021/08/04 06:59:38;;;;;;;42.20;26.77;;;17.70;99.90;;;;;;5037740;28;20193;-68
2021/08/04 07:02:07;;;;;;;39.37;26.40;;;17.90;99.90;;;;;;5043002;28;20196;-68
2021/08/04 07:04:35;;;;;;;42.53;28.43;;;18.20;99.90;;;;;;5041546;28;20247;-68
2021/08/04 07:07:05;;;;;;;45.90;29.00;;;18.20;99.90;;;;;;5021224;28;20202;-68
2021/08/04 07:09:34;;;;;;;39.37;28.73;;;18.40;99.90;;;;;;5042614;28;20185;-69
2021/08/04 07:12:05;;;;;;;42.53;28.57;;;18.70;99.90;;;;;;5041724;28;20181;-68
2021/08/04 07:14:33;;;;;;;40.97;28.00;;;18.80;99.90;;;;;;5040747;28;20182;-68
2021/08/04 07:17:02;;;;;;;41.10;28.37;;;19.20;99.90;;;;;;5043842;28;20360;-69
2021/08/04 07:19:33;;;;;;;40.10;26.93;;;19.00;99.90;;;;;;5039850;28;20197;-69
2021/08/04 07:22:02;;;;;;;35.33;24.10;;;19.10;99.90;;;;;;5046252;28;20186;-69
2021/08/04 07:24:31;;;;;;;32.70;23.57;;;19.40;99.90;;;;;;5043743;28;20181;-69
2021/08/04 07:27:00;;;;;;;30.60;21.13;;;19.40;99.90;;;;;;5042248;28;20220;-69
2021/08/04 07:29:28;;;;;;;29.73;20.63;;;19.30;99.90;;;;;;5036124;28;20181;-68
2021/08/04 07:31:56;;;;;;;26.53;19.17;;;19.40;99.90;;;;;;5043183;28;20185;-68
2021/08/04 07:34:25;;;;;;;27.57;20.20;;;19.50;99.90;;;;;;5054451;28;20188;-69
2021/08/04 07:36:53;;;;;;;27.17;18.27;;;19.60;99.90;;;;;;5026296;28;20327;-69
2021/08/04 07:39:22;;;;;;;24.60;17.27;;;19.80;99.90;;;;;;5036402;28;20173;-69
2021/08/04 07:41:56;;;;;;;27.13;17.77;;;19.90;99.90;;;;;;5041602;28;20189;-69
2021/08/04 07:44:24;;;;;;;22.93;16.03;;;20.10;99.90;;;;;;5040855;28;20368;-69
2021/08/04 07:46:54;;;;;;;21.97;16.37;;;20.50;99.90;;;;;;5041113;28;20201;-69
2021/08/04 07:49:23;;;;;;;17.27;14.47;;;20.30;99.90;;;;;;5037081;28;20193;-69
2021/08/04 07:51:51;;;;;;;17.93;13.23;;;20.50;99.90;;;;;;5041491;28;20500;-69
2021/08/04 07:54:19;;;;;;;15.53;10.93;;;20.90;99.90;;;;;;5043255;28;20182;-69
2021/08/04 07:56:48;;;;;;;16.30;10.87;;;21.00;99.90;;;;;;5040182;28;20360;-70
2021/08/04 07:59:17;;;;;;;14.23;11.37;;;21.40;99.90;;;;;;5039446;28;20425;-69
2021/08/04 08:01:46;;;;;;;13.37;10.10;;;21.50;99.90;;;;;;5039571;28;20182;-69
2021/08/04 08:04:14;;;;;;;13.00;10.97;;;21.40;99.90;;;;;;5017753;28;20193;-70
2021/08/04 08:06:42;;;;;;;15.20;12.30;;;21.40;99.90;;;;;;5041664;28;20211;-68
2021/08/04 08:09:13;;;;;;;12.63;11.23;;;21.40;99.90;;;;;;5041893;28;20186;-69
2021/08/04 08:11:42;;;;;;;9.83;8.70;;;21.70;99.90;;;;;;5042428;28;20243;-70
2021/08/04 08:14:10;;;;;;;11.13;9.03;;;21.80;99.90;;;;;;5040692;28;20220;-70
2021/08/04 08:16:44;;;;;;;10.43;9.50;;;22.00;99.90;;;;;;5040551;28;20442;-70
2021/08/04 08:19:13;;;;;;;10.83;8.87;;;22.00;99.90;;;;;;5040577;28;20432;-69
2021/08/04 08:21:41;;;;;;;10.77;9.30;;;22.00;99.90;;;;;;5041744;28;20179;-68
2021/08/04 08:24:09;;;;;;;10.67;9.60;;;21.90;99.90;;;;;;5037064;28;20197;-70
2021/08/04 08:26:38;;;;;;;12.17;10.37;;;21.70;99.90;;;;;;5041982;28;20234;-70
2021/08/04 08:29:08;;;;;;;11.53;9.80;;;21.40;99.90;;;;;;5040456;28;20179;-69
2021/08/04 08:31:38;;;;;;;13.10;11.27;;;21.30;99.90;;;;;;5042687;28;20190;-69
2021/08/04 08:34:08;;;;;;;17.23;10.50;;;21.20;99.90;;;;;;5038926;28;20189;-69
2021/08/04 08:36:38;;;;;;;11.60;9.43;;;21.10;99.90;;;;;;5037427;28;20203;-69
2021/08/04 08:39:08;;;;;;;9.80;8.77;;;21.20;99.90;;;;;;5035767;28;20179;-69
2021/08/04 08:41:37;;;;;;;10.23;9.23;;;21.50;99.90;;;;;;5028152;28;20426;-70
2021/08/04 08:44:09;;;;;;;12.43;11.13;;;21.90;99.90;;;;;;5039309;28;20183;-70
2021/08/04 08:46:38;;;;;;;14.03;10.63;;;22.10;99.90;;;;;;5042361;28;20629;-70
2021/08/04 08:49:08;;;;;;;13.80;10.07;;;22.50;99.90;;;;;;5040813;28;20187;-70
2021/08/04 08:51:36;;;;;;;13.73;10.13;;;22.70;99.90;;;;;;5041754;28;20219;-70
2021/08/04 08:54:06;;;;;;;10.77;9.07;;;22.60;99.90;;;;;;5042610;28;20186;-69
2021/08/04 08:56:34;;;;;;;10.10;9.10;;;22.60;99.90;;;;;;5036800;28;20336;-70
2021/08/04 08:59:02;;;;;;;10.47;8.93;;;22.90;99.90;;;;;;5043505;28;20173;-70
2021/08/04 09:01:37;;;;;;;10.83;9.80;;;23.20;99.90;;;;;;5044294;28;20182;-69
2021/08/04 09:04:11;;;;;;;13.10;9.50;;;23.60;99.90;;;;;;5045221;28;20192;-67
2021/08/04 09:06:42;;;;;;;13.13;10.03;;;23.50;99.90;;;;;;5050785;28;20196;-69
2021/08/04 09:09:18;;;;;;;14.60;11.90;;;23.40;99.90;;;;;;5043062;28;20184;-69
2021/08/04 09:11:48;;;;;;;16.33;11.70;;;23.10;99.90;;;;;;5019689;28;20208;-68
2021/08/04 09:14:16;;;;;;;11.13;9.77;;;23.40;99.90;;;;;;5050469;28;20319;-68
2021/08/04 09:16:48;;;;;;;10.50;9.50;;;23.60;99.90;;;;;;5043399;28;20174;-67
2021/08/04 09:19:22;;;;;;;11.45;9.02;;;24.20;99.90;;;;;;5041798;28;20430;-68
2021/08/04 09:22:09;;;;;;;9.48;8.50;;;24.50;99.90;;;;;;5037985;28;20188;-69
2021/08/04 09:25:01;;;;;;;11.27;9.52;;;25.00;99.90;;;;;;5035987;28;20194;-68
2021/08/04 09:27:57;;;;;;;10.82;9.60;;;25.10;99.90;;;;;;5040230;28;20486;-68
2021/08/04 09:30:29;;;;;;;12.23;9.02;;;25.40;99.90;;;;;;4993895;28;20236;-69
2021/08/04 09:33:13;;;;;;;10.60;9.50;;;25.70;99.90;;;;;;5036507;28;20200;-68
2021/08/04 09:35:45;;;;;;;9.55;8.55;;;26.10;99.90;;;;;;5041065;28;20342;-69
2021/08/04 09:38:14;;;;;;;9.23;8.10;;;26.60;99.90;;;;;;5039840;28;20187;-69
2021/08/04 09:40:47;;;;;;;13.88;9.48;;;26.90;99.90;;;;;;5038898;28;20322;-68
2021/08/04 09:43:24;;;;;;;10.38;9.43;;;27.50;99.90;;;;;;5044258;28;20200;-68
2021/08/04 09:45:54;;;;;;;12.45;9.63;;;27.90;99.90;;;;;;5040777;28;20190;-72
2021/08/04 09:48:25;;;;;;;10.27;8.68;;;27.80;99.90;;;;;;5019625;28;20197;-67
2021/08/04 09:50:57;;;;;;;9.15;8.35;;;27.80;99.90;;;;;;5037403;28;20181;-69
2021/08/04 09:53:28;;;;;;;9.82;8.88;;;27.50;99.90;;;;;;5038947;28;20270;-68
2021/08/04 09:56:10;;;;;;;10.55;9.25;;;27.50;99.90;;;;;;5038207;28;20305;-68
2021/08/04 09:58:41;;;;;;;11.98;10.38;;;27.00;99.90;;;;;;5042948;28;20365;-68
2021/08/04 10:01:11;;;;;;;15.13;9.70;;;27.50;99.90;;;;;;5023267;28;20428;-68
2021/08/04 10:03:57;;;;;;;11.48;10.15;;;28.00;99.90;;;;;;5027335;28;20196;-68
2021/08/04 10:06:27;;;;;;;8.00;7.18;;;28.50;99.90;;;;;;5037841;28;20191;-68
2021/08/04 10:08:57;;;;;;;7.82;7.10;;;29.10;99.90;;;;;;5044186;28;20183;-68
2021/08/04 10:11:26;;;;;;;9.82;8.88;;;29.50;99.90;;;;;;5041879;28;20220;-68
2021/08/04 10:13:56;;;;;;;10.88;8.50;;;29.10;99.90;;;;;;5042848;28;20185;-68
2021/08/04 10:16:25;;;;;;;11.25;9.10;;;28.20;99.90;;;;;;5036336;28;20290;-67
2021/08/04 10:18:57;;;;;;;10.05;9.05;;;27.00;99.90;;;;;;5036088;28;20192;-67
2021/08/04 10:21:27;;;;;;;12.35;9.13;;;26.80;99.90;;;;;;5039794;28;20184;-67
2021/08/04 10:23:55;;;;;;;9.50;8.60;;;26.20;99.90;;;;;;5039361;28;20179;-68
2021/08/04 10:26:24;;;;;;;9.00;7.30;;;25.40;99.90;;;;;;5037635;28;21847;-68
2021/08/04 10:28:55;;;;;;;7.93;7.17;;;24.80;99.90;;;;;;5037470;28;20198;-68
2021/08/04 10:31:24;;;;;;;7.93;6.93;;;25.30;99.90;;;;;;5037564;28;20405;-68
2021/08/04 10:33:55;;;;;;;7.57;6.78;;;26.20;99.90;;;;;;5042763;28;20182;-68
2021/08/04 10:36:25;;;;;;;8.20;7.40;;;27.30;99.90;;;;;;5040075;28;20174;-67
2021/08/04 10:38:59;;;;;;;5.78;5.30;;;27.80;99.90;;;;;;5039389;28;20177;-68
2021/08/04 10:41:29;;;;;;;8.82;6.43;;;27.40;99.90;;;;;;5039395;28;20496;-68
2021/08/04 10:43:58;;;;;;;8.47;6.13;;;26.20;99.90;;;;;;5039567;28;21156;-68
2021/08/04 10:46:43;;;;;;;8.40;6.40;;;25.30;99.90;;;;;;5040890;28;20178;-68
2021/08/04 10:49:36;;;;;;;7.20;6.47;;;24.50;99.90;;;;;;5036666;28;20208;-67
2021/08/04 10:52:13;;;;;;;6.97;6.30;;;23.90;99.90;;;;;;5019852;28;20254;-68
2021/08/04 10:55:18;;;;;;;7.60;6.80;;;23.60;99.90;;;;;;5040071;28;20183;-68
2021/08/04 11:00:46;;;;;;;7.57;6.83;;;23.30;99.90;;;;;;5136819;27;20604;-67
2021/08/04 11:03:47;;;;;;;7.20;6.50;;;23.00;99.90;;;;;;5137838;27;20326;-68
2021/08/04 11:06:17;;;;;;;10.30;7.83;;;22.90;99.90;;;;;;5137091;28;20187;-67
2021/08/04 11:08:48;;;;;;;8.83;8.00;;;22.60;99.90;;;;;;5140265;28;20211;-66
2021/08/04 11:11:51;;;;;;;7.73;6.93;;;22.40;99.90;;;;;;5136403;28;20186;-67
2021/08/04 11:14:41;;;;;;;12.27;8.23;;;22.20;99.90;;;;;;5138323;28;20189;-67
2021/08/04 11:17:12;;;;;;;8.07;7.27;;;22.00;99.90;;;;;;5133275;28;20221;-67
2021/08/04 11:20:15;;;;;;;10.90;8.03;;;22.00;99.90;;;;;;5136656;28;20210;-67
2021/08/04 11:22:47;;;;;;;9.10;8.10;;;22.00;99.90;;;;;;5135140;27;20185;-68
2021/08/04 11:25:31;;;;;;;13.50;8.60;;;22.10;99.90;;;;;;5136894;27;20418;-67
2021/08/04 11:28:17;;;;;;;10.70;8.00;;;22.10;99.90;;;;;;5137451;27;20178;-67
2021/08/04 11:30:49;;;;;;;13.63;8.87;;;22.10;99.90;;;;;;5134647;27;20328;-67
2021/08/04 11:33:30;;;;;;;10.70;8.93;;;22.10;99.90;;;;;;5135080;27;20219;-67
2021/08/04 11:36:07;;;;;;;8.47;7.57;;;22.00;99.90;;;;;;5136614;27;20326;-67
2021/08/04 11:38:43;;;;;;;10.40;9.30;;;22.20;99.90;;;;;;5134884;27;20185;-67
2021/08/04 11:41:30;;;;;;;10.00;8.83;;;22.40;99.90;;;;;;5127312;27;20178;-68
2021/08/04 11:44:08;;;;;;;12.73;8.73;;;22.60;99.90;;;;;;5154090;27;20189;-67
2021/08/04 11:46:40;;;;;;;9.37;7.90;;;23.10;99.90;;;;;;5130963;27;20237;-67
2021/08/04 11:49:13;;;;;;;9.03;8.10;;;23.40;99.90;;;;;;5144319;27;20212;-68
2021/08/04 11:51:44;;;;;;;8.70;7.80;;;24.10;99.90;;;;;;5125236;27;20192;-67
2021/08/04 11:54:14;;;;;;;8.03;7.33;;;25.00;99.90;;;;;;5143065;27;20175;-68
2021/08/04 11:56:47;;;;;;;8.13;7.37;;;25.70;99.90;;;;;;5148849;27;20190;-68
2021/08/04 11:59:16;;;;;;;10.63;7.33;;;26.30;99.90;;;;;;5147931;27;20358;-68
2021/08/04 12:01:55;;;;;;;7.25;6.63;;;27.00;99.90;;;;;;5147121;27;20231;-68
2021/08/04 12:04:27;;;;;;;8.27;7.32;;;27.30;99.90;;;;;;5138846;27;20174;-68
2021/08/04 12:07:01;;;;;;;6.65;6.05;;;27.20;99.90;;;;;;5142155;27;20176;-68
2021/08/04 12:09:31;;;;;;;7.18;6.57;;;27.40;99.90;;;;;;5137478;27;20183;-68
2021/08/04 12:12:01;;;;;;;8.60;6.53;;;27.40;99.90;;;;;;5124154;27;20182;-68
2021/08/04 12:14:30;;;;;;;6.72;6.13;;;27.30;99.90;;;;;;5125129;27;20213;-68
2021/08/04 12:17:00;;;;;;;7.93;7.17;;;26.60;99.90;;;;;;5123425;27;20229;-67
2021/08/04 12:19:39;;;;;;;6.73;5.67;;;25.80;99.90;;;;;;5124998;27;20191;-67
2021/08/04 12:22:19;;;;;;;8.80;5.27;;;25.50;99.90;;;;;;5117168;27;20187;-68
2021/08/04 12:24:50;;;;;;;6.77;5.70;;;25.30;99.90;;;;;;5127302;27;20217;-68
2021/08/04 12:27:37;;;;;;;5.70;5.20;;;25.70;99.90;;;;;;5135775;27;20306;-68
2021/08/04 12:30:18;;;;;;;5.97;5.40;;;26.10;99.90;;;;;;5128245;27;20258;-68
2021/08/04 12:33:00;;;;;;;4.70;4.33;;;26.50;99.90;;;;;;5132080;27;20318;-68
2021/08/04 12:35:39;;;;;;;4.97;4.57;;;26.40;99.90;;;;;;5122641;27;20182;-68
2021/08/04 12:38:12;;;;;;;5.70;5.30;;;26.30;99.90;;;;;;5122294;27;20454;-72
2021/08/04 12:40:41;;;;;;;6.47;5.90;;;26.20;99.90;;;;;;5121417;27;20204;-67
2021/08/04 12:43:11;;;;;;;6.80;5.60;;;25.60;99.90;;;;;;5114333;28;20236;-68
2021/08/04 12:45:46;;;;;;;7.53;6.83;;;25.20;99.90;;;;;;5119386;28;20197;-68
2021/08/04 12:48:18;;;;;;;6.87;6.10;;;24.30;99.90;;;;;;5122798;28;20299;-68
2021/08/04 12:50:54;;;;;;;6.77;6.20;;;24.40;99.90;;;;;;5119643;28;20246;-69
2021/08/04 12:53:28;;;;;;;8.20;7.37;;;24.60;99.90;;;;;;5123267;27;20179;-68
2021/08/04 12:56:05;;;;;;;7.90;6.50;;;24.70;99.90;;;;;;5125292;27;20176;-68
2021/08/04 12:58:52;;;;;;;13.00;8.93;;;24.30;99.90;;;;;;5114300;27;20589;-68